Time;durP1;ratioP1;P1;durP2;ratioP2;P2;SDS_P1;SDS_P2;PMS_P1;PMS_P2;Temp;Humidity;BMP_temperature;BMP_pressure;BME280_temperature;BME280_humidity;BME280_pressure;Samples;Min_cycle;Max_cycle;Signal;HPM_P1;HPM_P2
2021/09/07 18:03:11;;;;;;;;;;;;;;;;;;10572443;27;19970;-63
2021/09/07 18:08:13;;;;;;;;;;;;;;;;;;10574617;28;20374;-64
2021/09/07 18:19:20;;;;;;;;;;;;;;;;;;10575200;27;19912;-75
2021/09/07 18:24:21;;;;;;;;;;;;;;;;;;10542088;28;20110;-75
2021/09/07 18:29:22;;;;;;;;;;;;;;;;;;10531856;28;19919;-73
2021/09/07 18:34:24;;;;;;;;;;;;;;;;;;10532751;28;19916;-74
2021/09/07 18:39:25;;;;;;;;;;;;;;;;;;10515940;28;19917;-75
2021/09/07 18:44:26;;;;;;;;;;;;;;;;;;10533057;28;20347;-74
2021/09/07 18:49:28;;;;;;;;;;;;;;;;;;10532588;28;19912;-75
2021/09/07 18:54:29;;;;;;;;;;;;;;;;;;10532466;28;19912;-73
2021/09/07 18:59:31;;;;;;;;;;;;;;;;;;10533356;28;19966;-75
2021/09/07 19:04:32;;;;;;;;;;;;;;;;;;10530825;28;20402;-73
2021/09/07 19:09:34;;;;;;;;;;;;;;;;;;10511834;28;20346;-76
2021/09/07 19:14:36;;;;;;;;;;;;;;;;;;10485527;28;19972;-75
2021/09/07 19:19:40;;;;;;;;;;;;;;;;;;10486097;28;19913;-76
2021/09/07 19:24:41;;;;;;;;;;;;;;;;;;10522356;28;19913;-74
2021/09/07 19:29:42;;;;;;;;;;;;;;;;;;10503654;28;19912;-76
2021/09/07 19:34:43;;;;;;;;;;;;;;;;;;10479777;28;19943;-79
2021/09/07 19:39:44;;;;;;;;;;;;;;;;;;10499116;28;19927;-80
2021/09/07 19:44:46;;;;;;;;;;;;;;;;;;10500128;28;20287;-77
2021/09/07 19:49:50;;;;;;;;;;;;;;;;;;10498294;28;20321;-76
2021/09/07 19:54:53;;;;;;;;;;;;;;;;;;10496207;28;19924;-73
2021/09/07 19:59:56;;;;;;;;;;;;;;;;;;10498562;28;19917;-77
2021/09/07 20:04:58;;;;;;;;;;;;;;;;;;10495908;28;19948;-76
2021/09/07 20:09:59;;;;;;;;;;;;;;;;;;10497605;28;19908;-77
2021/09/07 20:15:00;;;;;;;;;;;;;;;;;;10494958;28;19927;-72
2021/09/07 20:20:02;;;;;;;;;;;;;;;;;;10496363;28;20049;-78
2021/09/07 20:25:04;;;;;;;;;;;;;;;;;;10497956;28;20323;-77
2021/09/07 20:30:06;;;;;;;;;;;;;;;;;;10481142;28;19913;-79
2021/09/07 20:35:08;;;;;;;;;;;;;;;;;;10498183;28;20015;-78
2021/09/07 20:40:11;;;;;;;;;;;;;;;;;;10494917;28;19920;-81
2021/09/07 20:45:13;;;;;;;;;;;;;;;;;;10501623;28;19956;-78
2021/09/07 20:50:14;;;;;;;;;;;;;;;;;;10499957;28;19916;-79
2021/09/07 20:55:16;;;;;;;;;;;;;;;;;;10496177;28;19951;-74
2021/09/07 21:00:20;;;;;;;;;;;;;;;;;;10496249;28;19919;-76
2021/09/07 21:05:22;;;;;;;;;;;;;;;;;;10493837;28;19916;-77
2021/09/07 21:10:24;;;;;;;;;;;;;;;;;;10496728;28;19922;-72
2021/09/07 21:15:25;;;;;;;;;;;;;;;;;;10494758;28;19944;-77
2021/09/07 21:20:27;;;;;;;;;;;;;;;;;;10497172;28;19913;-77
2021/09/07 21:25:32;;;;;;;;;;;;;;;;;;10495522;28;19912;-76
2021/09/07 21:30:33;;;;;;;;;;;;;;;;;;10493692;28;19912;-75
2021/09/07 21:35:36;;;;;;;;;;;;;;;;;;10495809;28;19916;-73
2021/09/07 21:40:38;;;;;;;;;;;;;;;;;;10495624;28;20295;-73
2021/09/07 21:45:41;;;;;;;;;;;;;;;;;;10493723;28;19916;-74
2021/09/07 21:50:42;;;;;;;;;;;;;;;;;;10493996;28;19912;-76
2021/09/07 21:55:44;;;;;;;;;;;;;;;;;;10490690;28;19921;-77
2021/09/07 22:00:46;;;;;;;;;;;;;;;;;;10494185;28;19919;-75
2021/09/07 22:05:47;;;;;;;;;;;;;;;;;;10494267;28;19913;-74
2021/09/07 22:10:48;;;;;;;;;;;;;;;;;;10492313;28;19920;-76
2021/09/07 22:15:49;;;;;;;;;;;;;;;;;;10494229;28;19956;-73
2021/09/07 22:20:50;;;;;;;;;;;;;;;;;;10491390;28;19948;-76
2021/09/07 22:25:52;;;;;;;;;;;;;;;;;;10495297;28;19920;-76
2021/09/07 22:30:54;;;;;;;;;;;;;;;;;;10496974;28;19916;-74
2021/09/07 22:35:56;;;;;;;;;;;;;;;;;;10495089;28;19917;-73
2021/09/07 22:40:57;;;;;;;;;;;;;;;;;;10495262;28;19920;-77
2021/09/07 22:46:00;;;;;;;;;;;;;;;;;;10478075;28;19913;-73
2021/09/07 22:51:01;;;;;;;;;;;;;;;;;;10494378;28;19912;-77
2021/09/07 22:56:03;;;;;;;;;;;;;;;;;;10495347;28;20291;-76
2021/09/07 23:01:04;;;;;;;;;;;;;;;;;;10496098;28;20413;-75
2021/09/07 23:06:06;;;;;;;;;;;;;;;;;;10451319;22;19995;-76
2021/09/07 23:11:07;;;;;;;;;;;;;;;;;;10434251;28;19913;-75
2021/09/07 23:16:08;;;;;;;;;;;;;;;;;;10436362;28;19917;-76
2021/09/07 23:21:09;;;;;;;;;;;;;;;;;;10421015;28;19913;-77
2021/09/07 23:26:11;;;;;;;;;;;;;;;;;;10420359;28;20261;-76
2021/09/07 23:31:12;;;;;;;;;;;;;;;;;;10418870;28;19913;-76
2021/09/07 23:36:13;;;;;;;;;;;;;;;;;;10420598;28;19944;-75
2021/09/07 23:41:14;;;;;;;;;;;;;;;;;;10418212;28;19921;-77
2021/09/07 23:46:15;;;;;;;;;;;;;;;;;;10419643;28;20445;-76
2021/09/07 23:51:16;;;;;;;;;;;;;;;;;;10419407;28;19919;-76
2021/09/07 23:56:19;;;;;;;;;;;;;;;;;;10418759;28;19925;-74
